createdAt,value
2022-08-05T00:00:17.370Z,51.16
2022-08-05T00:02:50.894Z,51.22
2022-08-05T00:06:02.524Z,51.36
2022-08-05T00:08:34.465Z,51.51
2022-08-05T00:11:01.310Z,51.64
2022-08-05T00:13:38.954Z,51.71
2022-08-05T00:16:10.863Z,51.80
2022-08-05T00:18:45.577Z,51.87
2022-08-05T00:21:14.778Z,51.95
2022-08-05T00:23:46.702Z,52.00
2022-08-05T00:26:22.397Z,52.06
2022-08-05T00:28:50.579Z,52.08
2022-08-05T00:31:53.934Z,52.21
2022-08-05T00:34:56.994Z,52.44
2022-08-05T00:37:13.150Z,52.69
2022-08-05T00:39:41.625Z,52.96
2022-08-05T00:42:11.338Z,53.17
2022-08-05T00:44:57.996Z,53.37
2022-08-05T00:47:24.657Z,53.55
2022-08-05T00:49:51.913Z,53.69
2022-08-05T00:52:28.671Z,53.81
2022-08-05T00:54:56.179Z,53.95
2022-08-05T00:57:25.240Z,54.06
2022-08-05T00:59:58.196Z,54.22
2022-08-05T01:02:25.041Z,54.35
2022-08-05T01:04:51.712Z,54.44
2022-08-05T01:07:18.531Z,54.59
2022-08-05T01:09:45.217Z,54.64
2022-08-05T01:12:23.274Z,54.69
2022-08-05T01:15:06.631Z,54.71
2022-08-05T01:18:12.375Z,54.79
2022-08-05T01:21:04.394Z,54.77
2022-08-05T01:24:03.316Z,54.86
2022-08-05T01:26:56.009Z,55.00
2022-08-05T01:29:40.836Z,55.11
2022-08-05T01:32:18.705Z,55.20
2022-08-05T01:35:04.294Z,55.26
2022-08-05T01:37:53.228Z,55.30
2022-08-05T01:40:28.910Z,55.38
2022-08-05T01:42:58.095Z,55.44
2022-08-05T01:45:28.072Z,55.51
2022-08-05T01:48:03.187Z,55.58
2022-08-05T01:50:40.876Z,55.67
2022-08-05T01:53:54.538Z,55.72
2022-08-05T01:56:11.566Z,55.85
2022-08-05T01:58:44.911Z,55.97
2022-08-05T02:01:24.648Z,55.99
2022-08-05T02:03:56.780Z,56.05
2022-08-05T02:06:37.739Z,56.16
2022-08-05T02:09:07.148Z,56.19
2022-08-05T02:12:10.149Z,56.23
2022-08-05T02:14:55.946Z,56.36
2022-08-05T02:18:32.403Z,56.47
2022-08-05T02:20:25.472Z,56.56
2022-08-05T02:23:03.624Z,56.63
2022-08-05T02:25:35.920Z,56.71
2022-08-05T02:28:28.486Z,56.80
2022-08-05T02:31:04.161Z,56.86
2022-08-05T02:33:38.904Z,56.93
2022-08-05T02:36:13.320Z,56.99
2022-08-05T02:38:53.669Z,57.01
2022-08-05T02:41:28.304Z,57.07
2022-08-05T02:44:13.166Z,57.09
2022-08-05T02:46:58.637Z,57.14
2022-08-05T02:49:35.908Z,57.25
2022-08-05T02:52:09.428Z,57.30
2022-08-05T02:54:41.210Z,57.39
2022-08-05T02:58:10.279Z,57.42
2022-08-05T03:00:02.111Z,57.55
2022-08-05T03:02:35.079Z,57.58
2022-08-05T03:05:04.136Z,57.64
2022-08-05T03:08:00.979Z,57.73
2022-08-05T03:10:24.399Z,57.82
2022-08-05T03:12:52.636Z,57.88
2022-08-05T03:15:20.487Z,57.93
2022-08-05T03:17:47.217Z,58.02
2022-08-05T03:20:14.010Z,58.05
2022-08-05T03:22:44.059Z,58.10
2022-08-05T03:25:32.512Z,58.18
2022-08-05T03:28:03.114Z,58.26
2022-08-05T03:30:34.755Z,58.28
2022-08-05T03:33:03.455Z,58.32
2022-08-05T03:35:34.046Z,58.42
2022-08-05T03:38:08.577Z,58.36
2022-08-05T03:40:35.785Z,58.40
2022-08-05T03:43:58.241Z,58.43
2022-08-05T03:45:57.386Z,58.45
2022-08-05T03:48:28.165Z,58.28
2022-08-05T03:52:37.589Z,58.23
2022-08-05T03:55:52.518Z,58.13
2022-08-05T03:57:19.041Z,58.11
2022-08-05T03:59:55.465Z,57.98
2022-08-05T04:02:37.648Z,57.91
2022-08-05T04:05:10.136Z,57.83
2022-08-05T04:07:57.338Z,57.85
2022-08-05T04:10:33.354Z,57.93
2022-08-05T04:13:07.284Z,57.91
2022-08-05T04:15:36.116Z,57.92
2022-08-05T04:18:09.847Z,57.86
2022-08-05T04:20:41.235Z,57.82
2022-08-05T04:23:12.572Z,57.76
2022-08-05T04:26:00.413Z,57.69
2022-08-05T04:28:30.602Z,57.64
2022-08-05T04:30:59.052Z,57.48
2022-08-05T04:34:17.991Z,57.39
2022-08-05T04:36:45.949Z,57.30
2022-08-05T04:39:02.912Z,57.32
2022-08-05T04:41:36.710Z,57.23
2022-08-05T04:44:09.434Z,57.08
2022-08-05T04:46:38.265Z,57.14
2022-08-05T04:49:14.698Z,56.98
2022-08-05T04:51:44.130Z,56.70
2022-08-05T04:54:11.990Z,56.51
2022-08-05T04:56:40.045Z,56.26
2022-08-05T04:59:21.886Z,56.05
2022-08-05T05:02:35.222Z,55.80
2022-08-05T05:04:47.505Z,55.04
2022-08-05T05:07:17.651Z,54.53
2022-08-05T05:09:45.618Z,54.27
2022-08-05T05:12:12.553Z,54.16
2022-08-05T05:14:49.130Z,53.93
2022-08-05T05:17:22.808Z,53.69
2022-08-05T05:19:54.994Z,53.39
2022-08-05T05:22:26.160Z,53.15
2022-08-05T05:24:59.878Z,52.81
2022-08-05T05:27:41.819Z,52.42
2022-08-05T05:30:31.463Z,52.15
2022-08-05T05:33:15.823Z,51.83
2022-08-05T05:35:47.913Z,51.65
2022-08-05T05:38:22.482Z,51.44
2022-08-05T05:40:57.307Z,51.35
2022-08-05T05:43:57.084Z,51.11
2022-08-05T05:46:17.845Z,50.67
2022-08-05T05:48:48.227Z,50.49
2022-08-05T05:51:21.030Z,50.30
2022-08-05T05:53:57.613Z,49.86
2022-08-05T05:56:34.552Z,49.48
2022-08-05T05:59:05.500Z,48.81
2022-08-05T06:01:39.743Z,48.16
2022-08-05T06:04:14.326Z,47.72
2022-08-05T06:06:47.400Z,47.18
2022-08-05T06:09:17.419Z,46.30
2022-08-05T06:12:01.120Z,44.89
2022-08-05T06:14:31.104Z,44.96
2022-08-05T06:16:58.898Z,44.91
2022-08-05T06:19:35.415Z,43.28
2022-08-05T06:22:07.841Z,40.52
2022-08-05T06:24:42.070Z,38.26
2022-08-05T06:27:17.258Z,36.25
2022-08-05T06:30:17.828Z,34.06
2022-08-05T06:32:48.379Z,33.37
2022-08-05T06:36:03.813Z,32.47
2022-08-05T06:38:11.132Z,30.73
2022-08-05T06:40:42.089Z,29.65
2022-08-05T06:43:58.221Z,29.04
2022-08-05T06:46:03.739Z,28.11
2022-08-05T06:48:53.285Z,27.42
2022-08-05T06:51:29.357Z,26.65
2022-08-05T06:54:03.346Z,25.34
2022-08-05T06:56:33.340Z,25.36
2022-08-05T06:59:03.575Z,25.43
2022-08-05T07:01:35.653Z,25.85
2022-08-05T07:04:03.651Z,26.53
2022-08-05T07:06:30.478Z,27.47
2022-08-05T07:09:03.821Z,28.02
2022-08-05T07:11:36.840Z,28.71
2022-08-05T07:14:30.112Z,29.39
2022-08-05T07:18:02.210Z,30.04
2022-08-05T07:20:32.402Z,30.63
2022-08-05T07:22:38.010Z,31.06
2022-08-05T07:25:23.486Z,31.66
2022-08-05T07:27:58.772Z,32.22
2022-08-05T07:30:33.424Z,32.85
2022-08-05T07:33:05.464Z,33.37
2022-08-05T07:36:04.264Z,33.87
2022-08-05T07:38:33.210Z,34.35
2022-08-05T07:42:08.709Z,34.67
2022-08-05T07:43:56.061Z,34.98
2022-08-05T07:46:26.167Z,35.56
2022-08-05T07:49:03.302Z,35.90
2022-08-05T07:51:37.005Z,36.13
2022-08-05T07:54:09.846Z,36.25
2022-08-05T07:57:00.413Z,36.15
2022-08-05T07:59:38.027Z,35.74
2022-08-05T08:02:07.663Z,34.44
2022-08-05T08:04:43.168Z,32.32
2022-08-05T08:07:13.083Z,30.99
2022-08-05T08:09:39.812Z,30.53
2022-08-05T08:12:14.661Z,29.77
2022-08-05T08:14:46.735Z,28.85
2022-08-05T08:17:16.239Z,26.95
2022-08-05T08:20:21.790Z,27.19
2022-08-05T08:22:32.816Z,26.48
2022-08-05T08:25:03.386Z,24.90
2022-08-05T08:27:44.749Z,24.51
2022-08-05T08:30:19.578Z,25.59
2022-08-05T08:32:57.011Z,24.61
2022-08-05T08:35:26.769Z,24.84
2022-08-05T08:37:56.257Z,24.32
2022-08-05T08:40:24.079Z,23.77
2022-08-05T08:42:53.059Z,22.61
2022-08-05T08:45:27.237Z,22.95
2022-08-05T08:48:11.757Z,23.34
2022-08-05T08:51:03.917Z,23.15
2022-08-05T08:53:38.206Z,22.51
2022-08-05T08:56:11.444Z,22.47
2022-08-05T08:58:44.376Z,22.65
2022-08-05T09:01:17.165Z,22.86
2022-08-05T09:03:52.833Z,22.10
2022-08-05T09:06:29.478Z,22.54
2022-08-05T09:09:00.603Z,22.73
2022-08-05T09:11:52.170Z,22.31
2022-08-05T09:14:56.816Z,22.52
2022-08-05T09:17:05.072Z,22.52
2022-08-05T09:20:01.586Z,23.03
2022-08-05T09:22:31.333Z,22.83
2022-08-05T09:25:01.912Z,22.69
2022-08-05T09:28:04.271Z,22.02
2022-08-05T09:30:27.513Z,21.18
2022-08-05T09:33:01.933Z,20.48
2022-08-05T09:35:29.477Z,21.28
2022-08-05T09:38:11.975Z,22.01
2022-08-05T09:40:52.433Z,22.79
2022-08-05T09:43:40.900Z,22.74
2022-08-05T09:46:32.252Z,22.92
2022-08-05T09:49:08.301Z,23.51
2022-08-05T09:51:49.661Z,23.95
2022-08-05T09:54:25.717Z,23.91
2022-08-05T09:56:56.068Z,24.46
2022-08-05T09:59:27.396Z,25.04
2022-08-05T10:01:57.972Z,25.57
2022-08-05T10:04:36.209Z,26.03
2022-08-05T10:07:19.865Z,26.24
2022-08-05T10:10:02.681Z,26.30
2022-08-05T10:12:50.460Z,26.42
2022-08-05T10:15:20.938Z,26.47
2022-08-05T10:18:12.030Z,26.76
2022-08-05T10:20:56.002Z,27.06
2022-08-05T10:23:55.609Z,26.93
2022-08-05T10:26:16.150Z,26.63
2022-08-05T10:28:46.333Z,26.98
2022-08-05T10:32:50.894Z,27.26
2022-08-05T10:34:04.106Z,27.65
2022-08-05T10:36:37.347Z,28.03
2022-08-05T10:39:25.020Z,28.07
2022-08-05T10:42:32.577Z,28.46
2022-08-05T10:45:21.206Z,28.51
2022-08-05T10:47:56.122Z,28.60
2022-08-05T10:51:22.164Z,28.69
2022-08-05T10:54:05.954Z,28.91
2022-08-05T10:56:52.934Z,28.90
2022-08-05T11:00:02.451Z,28.70
2022-08-05T11:02:37.767Z,28.76
2022-08-05T11:05:10.239Z,28.98
2022-08-05T11:08:03.343Z,29.14
2022-08-05T11:10:50.347Z,29.32
2022-08-05T11:13:58.134Z,29.43
2022-08-05T11:16:47.511Z,29.50
2022-08-05T11:20:11.151Z,29.64
2022-08-05T11:22:43.362Z,29.84
2022-08-05T11:26:04.517Z,29.89
2022-08-05T11:28:33.445Z,29.87
2022-08-05T11:31:06.169Z,29.50
2022-08-05T11:33:48.440Z,29.16
2022-08-05T11:36:34.064Z,29.09
2022-08-05T11:39:01.781Z,29.15
2022-08-05T11:41:54.625Z,29.51
2022-08-05T11:44:40.407Z,29.64
2022-08-05T11:47:10.882Z,29.73
2022-08-05T11:49:42.849Z,29.66
2022-08-05T11:52:11.467Z,29.55
2022-08-05T11:54:41.363Z,29.37
2022-08-05T11:57:13.215Z,29.24
2022-08-05T11:59:52.845Z,28.95
2022-08-05T12:02:31.300Z,28.78
2022-08-05T12:05:07.617Z,28.65
2022-08-05T12:08:10.192Z,28.83
2022-08-05T12:10:43.651Z,28.95
2022-08-05T12:13:18.555Z,29.24
2022-08-05T12:15:55.860Z,29.27
2022-08-05T12:18:38.716Z,29.37
2022-08-05T12:21:39.235Z,29.36
2022-08-05T12:24:09.761Z,29.39
2022-08-05T12:26:39.215Z,29.45
2022-08-05T12:29:26.145Z,29.40
2022-08-05T12:32:02.252Z,29.06
2022-08-05T12:34:36.806Z,28.88
2022-08-05T12:37:17.309Z,29.30
2022-08-05T12:39:51.081Z,29.49
2022-08-05T12:42:21.047Z,29.59
2022-08-05T12:44:49.380Z,29.66
2022-08-05T12:47:31.026Z,29.65
2022-08-05T12:50:03.088Z,29.45
2022-08-05T12:52:39.059Z,29.56
2022-08-05T12:55:40.422Z,29.36
2022-08-05T12:58:50.693Z,29.38
2022-08-05T13:01:59.857Z,29.67
2022-08-05T13:04:04.406Z,29.68
2022-08-05T13:06:41.204Z,29.85
2022-08-05T13:09:28.342Z,29.64
2022-08-05T13:12:13.199Z,29.74
2022-08-05T13:15:05.179Z,30.23
2022-08-05T13:17:41.826Z,30.07
2022-08-05T13:20:23.629Z,29.69
2022-08-05T13:22:53.669Z,29.73
2022-08-05T13:25:22.182Z,29.58
2022-08-05T13:28:07.861Z,29.75
2022-08-05T13:30:39.151Z,29.68
2022-08-05T13:33:06.052Z,29.58
2022-08-05T13:35:46.973Z,29.60
2022-08-05T13:38:30.563Z,29.26
2022-08-05T13:41:01.209Z,28.83
2022-08-05T13:43:44.614Z,28.71
2022-08-05T13:46:16.378Z,28.63
2022-08-05T13:49:00.866Z,28.70
2022-08-05T13:51:36.474Z,28.68
2022-08-05T13:54:03.586Z,28.72
2022-08-05T13:56:45.476Z,28.75
2022-08-05T13:59:24.392Z,28.80
2022-08-05T14:02:00.795Z,28.72
2022-08-05T14:04:52.839Z,28.69
2022-08-05T14:08:00.303Z,28.62
2022-08-05T14:10:29.010Z,28.49
2022-08-05T14:12:59.372Z,28.44
2022-08-05T14:16:08.817Z,28.63
2022-08-05T14:18:18.061Z,28.45
2022-08-05T14:20:48.984Z,28.33
2022-08-05T14:23:25.532Z,28.08
2022-08-05T14:25:58.436Z,28.02
2022-08-05T14:28:30.912Z,27.94
2022-08-05T14:30:59.131Z,28.11
2022-08-05T14:33:26.210Z,27.99
2022-08-05T14:35:54.523Z,28.45
2022-08-05T14:38:32.384Z,28.69
2022-08-05T14:41:06.563Z,28.75
2022-08-05T14:43:59.540Z,28.80
2022-08-05T14:46:30.828Z,28.60
2022-08-05T14:49:06.586Z,28.51
2022-08-05T14:51:42.480Z,28.62
2022-08-05T14:54:27.982Z,28.72
2022-08-05T14:56:58.566Z,28.67
2022-08-05T14:59:29.491Z,28.66
2022-08-05T15:02:02.711Z,28.79
2022-08-05T15:04:29.795Z,28.89
2022-08-05T15:06:57.533Z,29.18
2022-08-05T15:09:52.487Z,29.10
2022-08-05T15:12:16.999Z,29.05
2022-08-05T15:14:49.976Z,29.05
2022-08-05T15:17:47.782Z,29.35
2022-08-05T15:20:18.786Z,29.56
2022-08-05T15:22:52.218Z,29.57
2022-08-05T15:25:23.420Z,29.67
2022-08-05T15:28:08.488Z,29.59
2022-08-05T15:30:40.427Z,29.66
2022-08-05T15:33:07.306Z,29.64
2022-08-05T15:35:36.024Z,29.65
2022-08-05T15:38:31.719Z,29.68
2022-08-05T15:41:20.868Z,29.76
2022-08-05T15:43:45.413Z,29.91
2022-08-05T15:46:13.370Z,29.77
2022-08-05T15:48:46.824Z,29.79
2022-08-05T15:52:04.136Z,29.88
2022-08-05T15:54:15.030Z,30.16
2022-08-05T15:56:42.006Z,30.25
2022-08-05T15:59:08.665Z,30.36
2022-08-05T16:01:39.391Z,30.51
2022-08-05T16:04:08.703Z,30.60
2022-08-05T16:06:37.305Z,30.62
2022-08-05T16:09:04.314Z,30.80
2022-08-05T16:11:43.150Z,30.97
2022-08-05T16:14:17.117Z,31.10
2022-08-05T16:16:44.859Z,31.04
2022-08-05T16:19:25.857Z,31.12
2022-08-05T16:22:03.198Z,30.99
2022-08-05T16:24:41.145Z,30.91
2022-08-05T16:27:10.110Z,31.25
2022-08-05T16:29:47.509Z,31.85
2022-08-05T16:32:28.297Z,32.21
2022-08-05T16:34:56.690Z,32.53
2022-08-05T16:38:03.173Z,32.69
2022-08-05T16:40:20.217Z,32.90
2022-08-05T16:42:52.370Z,33.13
2022-08-05T16:46:03.906Z,33.31
2022-08-05T16:48:06.120Z,33.41
2022-08-05T16:50:32.813Z,33.50
2022-08-05T16:53:01.503Z,33.35
2022-08-05T16:55:47.199Z,33.45
2022-08-05T16:58:14.494Z,33.47
2022-08-05T17:00:41.238Z,33.60
2022-08-05T17:03:09.337Z,33.67
2022-08-05T17:05:50.268Z,33.78
2022-08-05T17:08:35.903Z,33.93
2022-08-05T17:11:12.756Z,33.90
2022-08-05T17:13:45.470Z,33.81
2022-08-05T17:16:32.741Z,33.95
2022-08-05T17:19:00.116Z,34.07
2022-08-05T17:21:35.655Z,34.18
2022-08-05T17:24:14.304Z,34.20
2022-08-05T17:26:53.641Z,34.26
2022-08-05T17:29:33.324Z,34.42
2022-08-05T17:32:08.433Z,34.44
2022-08-05T17:34:38.900Z,34.39
2022-08-05T17:37:40.896Z,34.40
2022-08-05T17:39:56.048Z,34.42
2022-08-05T17:42:29.804Z,34.46
2022-08-05T17:45:09.715Z,34.62
2022-08-05T17:47:45.761Z,34.77
2022-08-05T17:50:27.700Z,34.93
2022-08-05T17:53:04.766Z,35.01
2022-08-05T17:55:38.220Z,35.09
2022-08-05T17:58:09.675Z,35.20
2022-08-05T18:00:44.635Z,35.39
2022-08-05T18:03:39.164Z,35.68
2022-08-05T18:06:06.327Z,36.03
2022-08-05T18:08:44.555Z,36.31
2022-08-05T18:11:23.236Z,36.75
2022-08-05T18:13:51.953Z,36.99
2022-08-05T18:16:20.419Z,37.43
2022-08-05T18:18:48.081Z,38.00
2022-08-05T18:21:20.020Z,38.28
2022-08-05T18:23:53.504Z,38.54
2022-08-05T18:26:29.283Z,38.76
2022-08-05T18:28:57.616Z,39.04
2022-08-05T18:31:25.342Z,39.24
2022-08-05T18:33:59.877Z,39.41
2022-08-05T18:36:27.952Z,39.62
2022-08-05T18:38:55.609Z,39.76
2022-08-05T18:41:58.475Z,39.92
2022-08-05T18:44:09.189Z,40.05
2022-08-05T18:46:36.018Z,40.00
2022-08-05T18:49:21.428Z,40.13
2022-08-05T18:52:08.588Z,40.33
2022-08-05T18:54:35.966Z,40.47
2022-08-05T18:57:09.589Z,40.61
2022-08-05T19:00:02.566Z,40.98
2022-08-05T19:02:29.645Z,41.94
2022-08-05T19:05:02.073Z,42.84
2022-08-05T19:07:48.167Z,43.50
2022-08-05T19:10:28.459Z,43.44
2022-08-05T19:12:57.392Z,44.77
2022-08-05T19:15:58.229Z,45.91
2022-08-05T19:18:20.964Z,47.03
2022-08-05T19:20:54.072Z,45.66
2022-08-05T19:24:05.272Z,46.55
2022-08-05T19:26:09.618Z,51.09
2022-08-05T19:28:43.218Z,53.53
2022-08-05T19:31:13.606Z,53.09
2022-08-05T19:33:48.376Z,52.42
2022-08-05T19:36:29.354Z,52.28
2022-08-05T19:39:01.096Z,53.91
2022-08-05T19:42:03.373Z,54.22
2022-08-05T19:44:17.515Z,55.87
2022-08-05T19:46:45.785Z,56.24
2022-08-05T19:49:17.117Z,57.83
2022-08-05T19:52:04.733Z,58.41
2022-08-05T19:54:34.282Z,60.17
2022-08-05T19:57:06.430Z,60.74
2022-08-05T19:59:55.305Z,61.85
2022-08-05T20:02:23.197Z,62.52
2022-08-05T20:04:50.196Z,62.34
2022-08-05T20:07:46.829Z,62.55
2022-08-05T20:10:13.982Z,62.69
2022-08-05T20:12:47.943Z,62.77
2022-08-05T20:15:23.220Z,62.78
2022-08-05T20:18:10.780Z,63.06
2022-08-05T20:20:57.214Z,63.12
2022-08-05T20:23:39.453Z,63.29
2022-08-05T20:26:16.378Z,63.67
2022-08-05T20:28:47.958Z,63.63
2022-08-05T20:31:16.342Z,63.61
2022-08-05T20:33:44.909Z,64.61
2022-08-05T20:36:16.241Z,64.85
2022-08-05T20:38:53.628Z,65.53
2022-08-05T20:41:27.389Z,65.51
2022-08-05T20:44:18.978Z,65.98
2022-08-05T20:47:01.216Z,69.10
2022-08-05T20:49:28.501Z,68.16
2022-08-05T20:51:57.608Z,66.84
2022-08-05T20:54:25.860Z,65.40
2022-08-05T20:57:14.369Z,64.15
2022-08-05T21:00:21.155Z,63.57
2022-08-05T21:02:39.315Z,63.44
2022-08-05T21:05:06.942Z,64.81
2022-08-05T21:07:50.870Z,64.56
2022-08-05T21:10:19.861Z,64.35
2022-08-05T21:12:57.715Z,64.85
2022-08-05T21:15:34.492Z,65.03
2022-08-05T21:18:01.944Z,65.06
2022-08-05T21:20:33.577Z,65.52
2022-08-05T21:23:01.128Z,65.59
2022-08-05T21:25:34.123Z,66.12
2022-08-05T21:28:02.814Z,66.26
2022-08-05T21:30:29.645Z,66.38
2022-08-05T21:32:56.380Z,65.93
2022-08-05T21:35:30.042Z,66.74
2022-08-05T21:38:10.468Z,66.75
2022-08-05T21:40:39.415Z,67.23
2022-08-05T21:43:08.433Z,67.11
2022-08-05T21:45:51.843Z,67.95
2022-08-05T21:48:24.866Z,68.14
2022-08-05T21:50:54.049Z,68.71
2022-08-05T21:53:21.784Z,67.95
2022-08-05T21:56:05.295Z,66.17
2022-08-05T21:58:42.073Z,66.29
2022-08-05T22:01:11.121Z,66.25
2022-08-05T22:03:53.147Z,66.80
2022-08-05T22:06:23.043Z,66.95
2022-08-05T22:09:01.940Z,66.96
2022-08-05T22:11:41.194Z,67.68
2022-08-05T22:14:33.303Z,68.64
2022-08-05T22:16:56.954Z,68.13
2022-08-05T22:20:02.181Z,68.90
2022-08-05T22:22:11.783Z,69.12
2022-08-05T22:24:58.015Z,69.30
2022-08-05T22:28:08.276Z,69.43
2022-08-05T22:30:32.175Z,70.05
2022-08-05T22:33:02.201Z,70.38
2022-08-05T22:35:31.054Z,70.86
2022-08-05T22:38:15.086Z,71.45
2022-08-05T22:40:42.033Z,71.46
2022-08-05T22:43:16.413Z,71.67
2022-08-05T22:46:12.034Z,71.89
2022-08-05T22:48:43.156Z,72.06
2022-08-05T22:51:16.028Z,72.54
2022-08-05T22:53:51.172Z,73.23
2022-08-05T22:56:30.316Z,73.55
2022-08-05T22:59:04.195Z,73.51
2022-08-05T23:02:05.003Z,73.89
2022-08-05T23:04:33.821Z,73.19
2022-08-05T23:07:01.154Z,73.09
2022-08-05T23:09:53.362Z,73.26
2022-08-05T23:12:17.828Z,73.12
2022-08-05T23:14:44.890Z,72.82
2022-08-05T23:17:34.125Z,73.03
2022-08-05T23:20:16.702Z,72.33
2022-08-05T23:22:47.697Z,72.52
2022-08-05T23:25:52.568Z,72.41
2022-08-05T23:28:07.173Z,72.33
2022-08-05T23:30:40.381Z,72.29
2022-08-05T23:33:16.396Z,71.84
2022-08-05T23:35:50.613Z,71.74
2022-08-05T23:38:17.966Z,71.72
2022-08-05T23:40:50.066Z,71.32
2022-08-05T23:43:25.499Z,71.74
2022-08-05T23:46:19.762Z,71.37
2022-08-05T23:49:00.918Z,71.31
2022-08-05T23:51:57.776Z,71.32
2022-08-05T23:54:30.245Z,71.61
2022-08-05T23:57:04.083Z,71.93
2022-08-05T23:59:37.771Z,72.07
